createdAt,value
2019-02-03T00:00:44.396Z,65.04
2019-02-03T00:03:17.933Z,65.04
2019-02-03T00:05:51.384Z,64.94
2019-02-03T00:08:24.940Z,65.04
2019-02-03T00:10:58.700Z,65.10
2019-02-03T00:13:32.158Z,65.09
2019-02-03T00:16:06.364Z,65.09
2019-02-03T00:18:39.993Z,65.22
2019-02-03T00:21:13.618Z,64.98
2019-02-03T00:23:47.087Z,65.13
2019-02-03T00:26:20.681Z,65.15
2019-02-03T00:28:54.254Z,65.16
2019-02-03T00:31:27.899Z,64.98
2019-02-03T00:34:01.432Z,64.98
2019-02-03T00:36:34.939Z,64.93
2019-02-03T00:39:09.547Z,64.88
2019-02-03T00:41:43.125Z,65.12
2019-02-03T00:44:18.647Z,65.13
2019-02-03T00:46:52.149Z,65.01
2019-02-03T00:49:25.843Z,65.12
2019-02-03T00:51:59.265Z,65.00
2019-02-03T00:54:32.875Z,65.17
2019-02-03T00:57:06.452Z,65.07
2019-02-03T00:59:40.182Z,65.15
2019-02-03T01:02:13.699Z,65.19
2019-02-03T01:04:47.244Z,65.17
2019-02-03T01:07:27.514Z,65.18
2019-02-03T01:09:55.973Z,65.08
2019-02-03T01:12:29.471Z,65.11
2019-02-03T01:15:03.057Z,65.09
2019-02-03T01:17:36.556Z,65.26
2019-02-03T01:20:21.500Z,65.24
2019-02-03T01:22:55.035Z,65.23
2019-02-03T01:25:28.669Z,65.21
2019-02-03T01:28:02.009Z,65.06
2019-02-03T01:30:35.556Z,65.24
2019-02-03T01:33:09.017Z,65.30
2019-02-03T01:35:42.736Z,65.45
2019-02-03T01:38:16.286Z,65.33
2019-02-03T01:40:49.736Z,65.17
2019-02-03T01:43:23.265Z,65.37
2019-02-03T01:45:57.168Z,65.49
2019-02-03T01:48:30.848Z,65.24
2019-02-03T01:51:04.519Z,65.36
2019-02-03T01:53:37.965Z,65.67
2019-02-03T01:56:11.887Z,65.74
2019-02-03T01:58:45.315Z,65.95
2019-02-03T02:01:18.771Z,65.86
2019-02-03T02:03:52.207Z,65.86
2019-02-03T02:06:26.041Z,65.92
2019-02-03T02:08:59.580Z,65.59
2019-02-03T02:11:33.295Z,65.76
2019-02-03T02:14:06.810Z,65.64
2019-02-03T02:16:40.312Z,65.51
2019-02-03T02:19:13.843Z,65.62
2019-02-03T02:21:47.374Z,65.49
2019-02-03T02:24:20.843Z,65.63
2019-02-03T02:26:54.474Z,65.48
2019-02-03T02:29:28.135Z,65.34
2019-02-03T02:32:01.712Z,65.32
2019-02-03T02:34:35.103Z,65.33
2019-02-03T02:37:08.656Z,65.21
2019-02-03T02:39:42.145Z,65.33
2019-02-03T02:42:15.681Z,65.12
2019-02-03T02:44:49.143Z,65.25
2019-02-03T02:47:22.559Z,65.24
2019-02-03T02:49:56.440Z,65.21
2019-02-03T02:52:29.861Z,65.21
2019-02-03T02:55:03.454Z,65.11
2019-02-03T02:57:36.899Z,65.16
2019-02-03T03:00:17.384Z,65.06
2019-02-03T03:02:51.311Z,65.23
2019-02-03T03:05:24.846Z,65.03
2019-02-03T03:07:58.433Z,65.06
2019-02-03T03:10:32.071Z,64.96
2019-02-03T03:13:05.487Z,64.90
2019-02-03T03:15:38.937Z,64.84
2019-02-03T03:18:12.441Z,64.89
2019-02-03T03:20:46.057Z,64.87
2019-02-03T03:23:19.492Z,64.91
2019-02-03T03:25:53.025Z,64.95
2019-02-03T03:28:26.562Z,64.73
2019-02-03T03:31:00.404Z,64.90
2019-02-03T03:33:33.894Z,65.06
2019-02-03T03:36:07.443Z,64.98
2019-02-03T03:38:40.942Z,64.99
2019-02-03T03:41:14.801Z,64.87
2019-02-03T03:43:48.144Z,64.83
2019-02-03T03:46:21.848Z,64.73
2019-02-03T03:48:55.386Z,65.00
2019-02-03T03:51:29.375Z,65.10
2019-02-03T03:54:02.957Z,65.08
2019-02-03T03:56:36.401Z,65.01
2019-02-03T03:59:09.948Z,64.91
2019-02-03T04:01:43.676Z,65.09
2019-02-03T04:04:17.089Z,64.63
2019-02-03T04:06:50.563Z,64.99
2019-02-03T04:09:24.061Z,65.00
2019-02-03T04:11:57.517Z,65.03
2019-02-03T04:14:30.933Z,64.92
2019-02-03T04:17:04.460Z,64.81
2019-02-03T04:19:37.888Z,64.83
2019-02-03T04:22:11.561Z,64.78
2019-02-03T04:24:45.053Z,64.67
2019-02-03T04:27:18.501Z,64.72
2019-02-03T04:29:52.025Z,64.69
2019-02-03T04:32:25.612Z,64.76
2019-02-03T04:34:59.082Z,64.69
2019-02-03T04:37:32.552Z,64.68
2019-02-03T04:40:09.077Z,64.67
2019-02-03T04:42:42.649Z,64.67
2019-02-03T04:45:17.657Z,64.69
2019-02-03T04:47:51.258Z,64.64
2019-02-03T04:50:26.317Z,64.56
2019-02-03T04:52:59.839Z,64.51
2019-02-03T04:55:33.305Z,64.62
2019-02-03T04:58:06.830Z,64.58
2019-02-03T05:00:40.356Z,64.53
2019-02-03T05:03:13.816Z,64.63
2019-02-03T05:05:47.236Z,64.57
2019-02-03T05:08:20.733Z,64.55
2019-02-03T05:10:54.225Z,64.48
2019-02-03T05:13:27.765Z,64.51
2019-02-03T05:16:01.489Z,64.65
2019-02-03T05:18:34.948Z,64.59
2019-02-03T05:21:08.467Z,64.56
2019-02-03T05:23:41.989Z,64.55
2019-02-03T05:26:15.913Z,64.65
2019-02-03T05:28:49.372Z,64.67
2019-02-03T05:31:22.888Z,64.57
2019-02-03T05:33:56.332Z,64.70
2019-02-03T05:36:30.151Z,64.51
2019-02-03T05:39:05.337Z,64.43
2019-02-03T05:41:38.806Z,64.41
2019-02-03T05:44:12.309Z,64.55
2019-02-03T05:46:46.845Z,64.57
2019-02-03T05:49:20.324Z,64.47
2019-02-03T05:51:53.750Z,64.31
2019-02-03T05:54:27.276Z,64.54
2019-02-03T05:57:00.694Z,64.66
2019-02-03T05:59:34.149Z,64.71
2019-02-03T06:02:10.043Z,64.79
2019-02-03T06:04:43.085Z,64.66
2019-02-03T06:07:16.638Z,64.53
2019-02-03T06:09:50.099Z,64.56
2019-02-03T06:12:23.552Z,64.49
2019-02-03T06:14:57.252Z,64.52
2019-02-03T06:17:30.780Z,64.48
2019-02-03T06:20:07.409Z,64.36
2019-02-03T06:22:40.877Z,64.29
2019-02-03T06:25:15.009Z,64.46
2019-02-03T06:27:48.486Z,64.33
2019-02-03T06:30:25.013Z,64.36
2019-02-03T06:32:58.469Z,64.45
2019-02-03T06:35:31.959Z,64.49
2019-02-03T06:38:05.474Z,64.28
2019-02-03T06:40:38.977Z,64.42
2019-02-03T06:43:12.521Z,64.17
2019-02-03T06:45:47.590Z,64.34
2019-02-03T06:48:22.674Z,64.05
2019-02-03T06:50:56.064Z,64.52
2019-02-03T06:53:29.461Z,64.32
2019-02-03T06:56:02.897Z,63.89
2019-02-03T06:58:36.427Z,64.39
2019-02-03T07:01:09.889Z,64.22
2019-02-03T07:03:43.333Z,64.02
2019-02-03T07:06:16.965Z,64.07
2019-02-03T07:08:50.342Z,63.96
2019-02-03T07:11:23.853Z,63.98
2019-02-03T07:13:57.484Z,63.76
2019-02-03T07:16:40.449Z,63.88
2019-02-03T07:19:06.273Z,63.99
2019-02-03T07:21:39.837Z,63.88
2019-02-03T07:24:13.291Z,63.83
2019-02-03T07:26:46.743Z,63.77
2019-02-03T07:29:20.383Z,63.75
2019-02-03T07:31:54.101Z,63.89
2019-02-03T07:34:27.595Z,63.81
2019-02-03T07:37:01.084Z,63.69
2019-02-03T07:39:34.601Z,63.61
2019-02-03T07:42:08.302Z,63.57
2019-02-03T07:44:41.905Z,63.43
2019-02-03T07:47:15.445Z,63.39
2019-02-03T07:49:48.931Z,63.63
2019-02-03T07:52:22.915Z,63.65
2019-02-03T07:54:56.432Z,63.66
2019-02-03T07:57:29.985Z,63.64
2019-02-03T08:00:05.532Z,63.75
2019-02-03T08:02:39.342Z,63.69
2019-02-03T08:05:13.168Z,63.80
2019-02-03T08:07:46.631Z,63.66
2019-02-03T08:10:26.343Z,63.56
2019-02-03T08:12:55.563Z,63.60
2019-02-03T08:15:29.095Z,63.55
2019-02-03T08:18:02.583Z,63.62
2019-02-03T08:20:36.116Z,63.70
2019-02-03T08:23:09.638Z,63.78
2019-02-03T08:25:43.086Z,63.74
2019-02-03T08:28:16.504Z,63.73
2019-02-03T08:30:49.967Z,63.52
2019-02-03T08:33:23.445Z,63.54
2019-02-03T08:35:56.911Z,63.67
2019-02-03T08:38:30.339Z,63.74
2019-02-03T08:41:03.891Z,63.75
2019-02-03T08:43:37.383Z,63.62
2019-02-03T08:46:11.274Z,63.67
2019-02-03T08:48:44.728Z,63.44
2019-02-03T08:51:18.181Z,63.31
2019-02-03T08:53:51.595Z,63.59
2019-02-03T08:56:25.383Z,63.62
2019-02-03T08:58:58.795Z,63.60
2019-02-03T09:01:32.184Z,63.62
2019-02-03T09:04:05.711Z,63.52
2019-02-03T09:06:39.172Z,63.37
2019-02-03T09:09:12.594Z,63.51
2019-02-03T09:11:45.977Z,63.34
2019-02-03T09:14:19.400Z,63.35
2019-02-03T09:16:52.917Z,63.36
2019-02-03T09:19:26.268Z,63.25
2019-02-03T09:21:59.800Z,63.25
2019-02-03T09:24:33.189Z,63.31
2019-02-03T09:27:06.780Z,63.30
2019-02-03T09:29:40.150Z,62.94
2019-02-03T09:32:13.595Z,63.10
2019-02-03T09:34:47.013Z,63.13
2019-02-03T09:37:20.505Z,62.78
2019-02-03T09:39:54.127Z,63.01
2019-02-03T09:42:27.599Z,63.17
2019-02-03T09:45:01.011Z,62.58
2019-02-03T09:47:34.695Z,62.89
2019-02-03T09:50:11.596Z,62.43
2019-02-03T09:52:45.052Z,62.58
2019-02-03T09:55:18.754Z,62.57
2019-02-03T09:57:52.209Z,62.61
2019-02-03T10:00:28.103Z,62.47
2019-02-03T10:03:02.191Z,62.55
2019-02-03T10:05:37.247Z,61.13
2019-02-03T10:08:10.945Z,61.47
2019-02-03T10:10:44.802Z,62.56
2019-02-03T10:13:18.223Z,62.24
2019-02-03T10:15:51.761Z,61.59
2019-02-03T10:18:25.109Z,62.17
2019-02-03T10:20:58.646Z,61.85
2019-02-03T10:23:32.062Z,61.87
2019-02-03T10:26:05.583Z,62.06
2019-02-03T10:28:39.149Z,61.82
2019-02-03T10:31:12.667Z,61.59
2019-02-03T10:33:46.113Z,61.03
2019-02-03T10:36:19.721Z,61.64
2019-02-03T10:38:53.514Z,61.64
2019-02-03T10:41:27.193Z,61.19
2019-02-03T10:44:00.540Z,61.52
2019-02-03T10:46:34.007Z,61.53
2019-02-03T10:49:07.575Z,60.87
2019-02-03T10:51:41.014Z,61.24
2019-02-03T10:54:14.881Z,60.00
2019-02-03T10:56:48.257Z,60.00
2019-02-03T10:59:21.694Z,61.21
2019-02-03T11:01:55.140Z,60.67
2019-02-03T11:04:28.488Z,60.84
2019-02-03T11:07:01.944Z,60.84
2019-02-03T11:09:35.295Z,60.22
2019-02-03T11:12:08.753Z,60.81
2019-02-03T11:14:42.135Z,60.07
2019-02-03T11:17:15.771Z,60.07
2019-02-03T11:19:49.114Z,60.29
2019-02-03T11:22:22.642Z,60.14
2019-02-03T11:24:56.061Z,60.01
2019-02-03T11:27:29.586Z,58.76
2019-02-03T11:30:03.608Z,60.15
2019-02-03T11:32:37.080Z,59.65
2019-02-03T11:35:11.468Z,59.67
2019-02-03T11:37:45.069Z,60.10
2019-02-03T11:40:27.575Z,59.95
2019-02-03T11:43:01.103Z,60.05
2019-02-03T11:45:37.072Z,60.28
2019-02-03T11:48:18.278Z,59.10
2019-02-03T11:50:51.880Z,58.23
2019-02-03T11:53:26.759Z,58.23
2019-02-03T11:56:00.216Z,58.52
2019-02-03T11:58:34.145Z,58.32
2019-02-03T12:01:07.951Z,58.32
2019-02-03T12:03:41.418Z,58.46
2019-02-03T12:06:14.787Z,58.02
2019-02-03T12:08:48.528Z,57.05
2019-02-03T12:11:21.948Z,57.90
2019-02-03T12:13:55.474Z,57.90
2019-02-03T12:16:28.814Z,57.79
2019-02-03T12:19:02.622Z,57.50
2019-02-03T12:21:36.040Z,57.87
2019-02-03T12:24:09.470Z,57.22
2019-02-03T12:26:42.945Z,57.46
2019-02-03T12:29:16.601Z,56.75
2019-02-03T12:31:50.005Z,55.63
2019-02-03T12:34:23.499Z,54.87
2019-02-03T12:36:57.006Z,54.87
2019-02-03T12:39:30.463Z,56.00
2019-02-03T12:42:12.878Z,55.24
2019-02-03T12:44:39.165Z,53.65
2019-02-03T12:47:12.614Z,53.23
2019-02-03T12:49:46.330Z,54.52
2019-02-03T12:52:19.681Z,55.10
2019-02-03T12:54:53.125Z,54.48
2019-02-03T12:57:26.535Z,54.48
2019-02-03T13:00:00.055Z,54.29
2019-02-03T13:02:33.632Z,53.11
2019-02-03T13:05:09.751Z,54.02
2019-02-03T13:07:43.158Z,54.25
2019-02-03T13:10:22.006Z,52.79
2019-02-03T13:12:55.715Z,53.96
2019-02-03T13:15:40.996Z,54.43
2019-02-03T13:18:14.490Z,54.48
2019-02-03T13:20:48.059Z,52.76
2019-02-03T13:23:21.587Z,53.85
2019-02-03T13:25:55.070Z,53.50
2019-02-03T13:28:28.524Z,53.50
2019-02-03T13:31:01.934Z,53.69
2019-02-03T13:33:35.372Z,52.84
2019-02-03T13:36:09.044Z,52.65
2019-02-03T13:38:42.420Z,53.16
2019-02-03T13:41:15.837Z,52.77
2019-02-03T13:43:49.285Z,53.06
2019-02-03T13:46:22.761Z,52.32
2019-02-03T13:48:56.279Z,51.79
2019-02-03T13:51:29.754Z,52.88
2019-02-03T13:54:03.203Z,52.04
2019-02-03T13:56:36.757Z,49.77
2019-02-03T13:59:10.279Z,52.82
2019-02-03T14:01:43.756Z,53.08
2019-02-03T14:04:17.134Z,53.60
2019-02-03T14:06:50.540Z,53.38
2019-02-03T14:09:23.921Z,53.53
2019-02-03T14:11:57.520Z,53.93
2019-02-03T14:14:30.917Z,53.27
2019-02-03T14:17:04.386Z,53.34
2019-02-03T14:19:37.830Z,53.65
2019-02-03T14:22:11.686Z,52.82
2019-02-03T14:24:45.132Z,52.25
2019-02-03T14:27:18.612Z,52.93
2019-02-03T14:29:52.026Z,53.27
2019-02-03T14:32:25.820Z,53.02
2019-02-03T14:34:59.289Z,53.30
2019-02-03T14:37:32.716Z,53.52
2019-02-03T14:40:09.184Z,53.93
2019-02-03T14:42:48.203Z,53.73
2019-02-03T14:45:21.107Z,52.36
2019-02-03T14:47:54.521Z,53.39
2019-02-03T14:50:28.025Z,52.91
2019-02-03T14:53:05.052Z,48.16
2019-02-03T14:55:41.096Z,52.40
2019-02-03T14:58:15.315Z,51.45
2019-02-03T15:00:49.272Z,51.14
2019-02-03T15:03:22.678Z,50.54
2019-02-03T15:05:56.188Z,51.41
2019-02-03T15:08:29.598Z,51.74
2019-02-03T15:11:03.101Z,52.53
2019-02-03T15:13:36.516Z,52.62
2019-02-03T15:16:10.031Z,52.58
2019-02-03T15:18:43.438Z,52.63
2019-02-03T15:21:17.449Z,51.77
2019-02-03T15:23:50.794Z,52.98
2019-02-03T15:26:24.303Z,52.33
2019-02-03T15:28:57.712Z,52.65
2019-02-03T15:31:31.166Z,53.21
2019-02-03T15:34:05.131Z,53.32
2019-02-03T15:36:38.605Z,53.84
2019-02-03T15:39:12.044Z,53.94
2019-02-03T15:41:45.646Z,54.19
2019-02-03T15:44:19.087Z,54.39
2019-02-03T15:46:52.619Z,54.44
2019-02-03T15:49:26.121Z,54.52
2019-02-03T15:51:59.574Z,54.75
2019-02-03T15:54:33.159Z,54.82
2019-02-03T15:57:06.678Z,54.87
2019-02-03T15:59:40.029Z,55.12
2019-02-03T16:02:13.404Z,55.12
2019-02-03T16:04:47.154Z,55.42
2019-02-03T16:07:20.668Z,55.50
2019-02-03T16:09:54.073Z,55.81
2019-02-03T16:12:27.458Z,55.83
2019-02-03T16:15:01.079Z,55.98
2019-02-03T16:17:34.515Z,56.18
2019-02-03T16:20:20.560Z,56.31
2019-02-03T16:22:54.100Z,56.47
2019-02-03T16:25:27.633Z,56.53
2019-02-03T16:28:01.035Z,56.69
2019-02-03T16:30:36.710Z,56.47
2019-02-03T16:33:12.187Z,56.56
2019-02-03T16:35:45.635Z,56.56
2019-02-03T16:38:23.143Z,56.63
2019-02-03T16:40:54.285Z,56.85
2019-02-03T16:43:27.686Z,56.97
2019-02-03T16:46:01.128Z,57.11
2019-02-03T16:48:34.596Z,57.21
2019-02-03T16:51:08.152Z,57.33
2019-02-03T16:53:41.874Z,57.36
2019-02-03T16:56:15.700Z,57.48
2019-02-03T16:58:49.044Z,57.62
2019-02-03T17:01:22.493Z,57.65
2019-02-03T17:03:55.834Z,57.80
2019-02-03T17:06:29.353Z,57.81
2019-02-03T17:09:04.341Z,57.84
2019-02-03T17:11:37.764Z,57.89
2019-02-03T17:14:11.243Z,58.03
2019-02-03T17:16:50.165Z,58.15
2019-02-03T17:19:23.968Z,58.10
2019-02-03T17:21:57.430Z,58.18
2019-02-03T17:24:30.845Z,58.25
2019-02-03T17:27:04.292Z,58.26
2019-02-03T17:29:37.784Z,58.40
2019-02-03T17:32:11.238Z,58.45
2019-02-03T17:34:44.950Z,58.56
2019-02-03T17:37:18.411Z,58.54
2019-02-03T17:39:51.900Z,58.74
2019-02-03T17:42:26.195Z,58.82
2019-02-03T17:44:59.696Z,58.90
2019-02-03T17:47:33.141Z,58.98
2019-02-03T17:50:10.123Z,58.94
2019-02-03T17:52:43.815Z,59.10
2019-02-03T17:55:18.975Z,59.19
2019-02-03T17:57:52.443Z,59.24
2019-02-03T18:00:36.403Z,59.32
2019-02-03T18:03:10.825Z,59.42
2019-02-03T18:05:44.301Z,59.47
2019-02-03T18:08:19.583Z,59.63
2019-02-03T18:10:53.233Z,59.64
2019-02-03T18:13:26.672Z,59.74
2019-02-03T18:16:00.078Z,59.78
2019-02-03T18:18:33.469Z,59.91
2019-02-03T18:21:06.882Z,59.96
2019-02-03T18:23:40.327Z,60.02
2019-02-03T18:26:13.742Z,60.12
2019-02-03T18:28:47.244Z,60.19
2019-02-03T18:31:20.687Z,60.25
2019-02-03T18:33:54.136Z,60.33
2019-02-03T18:36:27.548Z,60.41
2019-02-03T18:39:01.010Z,60.51
2019-02-03T18:41:34.543Z,60.45
2019-02-03T18:44:08.157Z,60.52
2019-02-03T18:46:41.864Z,60.47
2019-02-03T18:49:15.276Z,60.56
2019-02-03T18:51:49.134Z,60.47
2019-02-03T18:54:22.586Z,60.65
2019-02-03T18:56:56.006Z,60.58
2019-02-03T18:59:29.453Z,60.47
2019-02-03T19:02:03.352Z,60.55
2019-02-03T19:04:36.848Z,60.73
2019-02-03T19:07:10.361Z,60.78
2019-02-03T19:09:43.740Z,60.84
2019-02-03T19:12:17.157Z,60.98
2019-02-03T19:14:50.602Z,61.05
2019-02-03T19:17:24.062Z,61.09
2019-02-03T19:19:57.538Z,61.11
2019-02-03T19:22:30.937Z,61.06
2019-02-03T19:25:06.321Z,61.10
2019-02-03T19:27:39.855Z,61.09
2019-02-03T19:30:26.457Z,61.08
2019-02-03T19:32:59.906Z,61.17
2019-02-03T19:35:34.492Z,61.15
2019-02-03T19:38:08.321Z,61.15
2019-02-03T19:40:41.735Z,61.12
2019-02-03T19:43:15.364Z,61.09
2019-02-03T19:45:48.787Z,61.14
2019-02-03T19:48:22.244Z,61.10
2019-02-03T19:50:55.787Z,61.06
2019-02-03T19:53:29.634Z,61.19
2019-02-03T19:56:03.245Z,61.08
2019-02-03T19:58:36.690Z,61.20
2019-02-03T20:01:10.121Z,61.30
2019-02-03T20:03:43.555Z,61.24
2019-02-03T20:06:16.966Z,61.27
2019-02-03T20:08:50.518Z,61.30
2019-02-03T20:11:24.012Z,61.28
2019-02-03T20:13:57.463Z,61.37
2019-02-03T20:16:30.945Z,61.26
2019-02-03T20:19:04.487Z,61.41
2019-02-03T20:21:37.903Z,61.49
2019-02-03T20:24:11.374Z,61.49
2019-02-03T20:26:44.719Z,61.56
2019-02-03T20:29:18.167Z,61.51
2019-02-03T20:31:51.529Z,61.53
2019-02-03T20:34:24.995Z,61.45
2019-02-03T20:36:58.882Z,61.49
2019-02-03T20:39:32.424Z,61.60
2019-02-03T20:42:07.157Z,61.58
2019-02-03T20:44:40.758Z,61.56
2019-02-03T20:47:14.201Z,61.57
2019-02-03T20:49:47.648Z,61.60
2019-02-03T20:52:21.143Z,61.53
2019-02-03T20:54:54.529Z,61.59
2019-02-03T20:57:27.866Z,61.61
2019-02-03T21:00:01.332Z,61.62
2019-02-03T21:02:34.747Z,61.64
2019-02-03T21:05:08.473Z,61.57
2019-02-03T21:07:42.168Z,61.55
2019-02-03T21:10:21.170Z,61.45
2019-02-03T21:12:54.854Z,61.56
2019-02-03T21:15:33.809Z,61.43
2019-02-03T21:18:03.904Z,61.51
2019-02-03T21:20:37.373Z,61.54
2019-02-03T21:23:10.847Z,61.52
2019-02-03T21:25:44.322Z,61.54
2019-02-03T21:28:17.739Z,61.52
2019-02-03T21:30:51.366Z,61.69
2019-02-03T21:33:24.839Z,61.60
2019-02-03T21:35:58.310Z,61.64
2019-02-03T21:38:31.720Z,61.70
2019-02-03T21:41:05.532Z,61.62
2019-02-03T21:43:39.012Z,61.79
2019-02-03T21:46:12.525Z,61.74
2019-02-03T21:48:45.858Z,61.74
2019-02-03T21:51:19.313Z,61.70
2019-02-03T21:53:52.738Z,61.80
2019-02-03T21:56:26.246Z,61.78
2019-02-03T21:58:59.655Z,61.74
2019-02-03T22:01:33.254Z,61.87
2019-02-03T22:04:06.866Z,61.86
2019-02-03T22:06:40.648Z,61.83
2019-02-03T22:09:15.057Z,61.70
2019-02-03T22:11:48.999Z,61.75
2019-02-03T22:14:22.529Z,61.78
2019-02-03T22:16:56.254Z,61.80
2019-02-03T22:19:29.780Z,61.87
2019-02-03T22:22:05.045Z,61.66
2019-02-03T22:24:38.449Z,61.74
2019-02-03T22:27:11.895Z,61.74
2019-02-03T22:29:45.492Z,61.65
2019-02-03T22:32:18.842Z,61.78
2019-02-03T22:34:52.312Z,61.67
2019-02-03T22:37:25.724Z,61.70
2019-02-03T22:39:59.619Z,61.63
2019-02-03T22:42:33.030Z,61.66
2019-02-03T22:45:09.886Z,61.67
2019-02-03T22:47:43.758Z,61.69
2019-02-03T22:50:19.576Z,61.62
2019-02-03T22:52:53.155Z,61.69
2019-02-03T22:55:26.746Z,61.78
2019-02-03T22:58:00.232Z,61.81
2019-02-03T23:00:47.279Z,61.76
2019-02-03T23:03:24.168Z,61.95
2019-02-03T23:05:58.557Z,61.83
2019-02-03T23:08:32.071Z,61.66
2019-02-03T23:11:06.763Z,61.78
2019-02-03T23:13:40.175Z,61.78
2019-02-03T23:16:18.440Z,61.83
2019-02-03T23:18:49.495Z,61.88
2019-02-03T23:21:23.133Z,61.94
2019-02-03T23:23:56.855Z,61.86
2019-02-03T23:26:30.264Z,61.78
2019-02-03T23:29:03.700Z,61.77
2019-02-03T23:31:37.223Z,61.81
2019-02-03T23:34:11.079Z,61.83
2019-02-03T23:36:44.597Z,61.88
2019-02-03T23:39:18.041Z,61.84
2019-02-03T23:41:51.489Z,61.85
2019-02-03T23:44:24.934Z,61.83
2019-02-03T23:46:58.438Z,61.95
2019-02-03T23:49:31.885Z,61.90
2019-02-03T23:52:05.429Z,62.01
2019-02-03T23:54:38.848Z,62.03
2019-02-03T23:57:12.288Z,62.02
2019-02-03T23:59:45.654Z,62.05
